createdAt,value
2018-02-20T00:00:43.523Z,38.20
2018-02-20T00:03:11.021Z,45.60
2018-02-20T00:05:39.241Z,45.37
2018-02-20T00:08:06.684Z,37.03
2018-02-20T00:10:34.136Z,34.90
2018-02-20T00:13:02.381Z,38.13
2018-02-20T00:15:29.860Z,37.73
2018-02-20T00:17:57.308Z,35.33
2018-02-20T00:20:24.764Z,32.20
2018-02-20T00:22:52.249Z,31.33
2018-02-20T00:25:20.528Z,34.33
2018-02-20T00:27:47.929Z,50.70
2018-02-20T00:30:15.382Z,28.70
2018-02-20T00:32:42.991Z,43.10
2018-02-20T00:35:10.479Z,41.97
2018-02-20T00:37:37.948Z,34.27
2018-02-20T00:40:05.399Z,38.23
2018-02-20T00:42:32.932Z,46.47
2018-02-20T00:45:00.392Z,31.67
2018-02-20T00:47:27.820Z,36.43
2018-02-20T00:49:55.285Z,34.30
2018-02-20T00:52:22.806Z,30.13
2018-02-20T00:54:50.265Z,32.07
2018-02-20T00:57:17.710Z,34.13
2018-02-20T00:59:45.184Z,32.70
2018-02-20T01:02:12.715Z,34.20
2018-02-20T01:04:40.174Z,35.50
2018-02-20T01:07:07.645Z,30.87
2018-02-20T01:09:35.136Z,39.00
2018-02-20T01:12:02.604Z,39.70
2018-02-20T01:14:30.851Z,36.03
2018-02-20T01:16:58.292Z,37.23
2018-02-20T01:19:25.756Z,38.70
2018-02-20T01:21:53.224Z,43.77
2018-02-20T01:24:20.695Z,32.80
2018-02-20T01:26:48.260Z,43.43
2018-02-20T01:29:15.722Z,53.20
2018-02-20T01:31:43.157Z,55.43
2018-02-20T01:34:10.640Z,44.60
2018-02-20T01:36:38.112Z,48.23
2018-02-20T01:39:05.692Z,38.20
2018-02-20T01:41:33.235Z,43.07
2018-02-20T01:44:00.787Z,39.70
2018-02-20T01:46:28.433Z,52.20
2018-02-20T01:48:55.864Z,48.27
2018-02-20T01:51:24.095Z,42.93
2018-02-20T01:53:51.544Z,49.27
2018-02-20T01:56:19.001Z,47.27
2018-02-20T01:58:47.276Z,49.07
2018-02-20T02:01:14.760Z,40.90
2018-02-20T02:03:42.244Z,43.90
2018-02-20T02:06:09.779Z,38.10
2018-02-20T02:08:37.223Z,42.20
2018-02-20T02:11:04.676Z,47.33
2018-02-20T02:13:32.196Z,46.33
2018-02-20T02:15:59.649Z,40.97
2018-02-20T02:18:27.864Z,47.53
2018-02-20T02:20:55.312Z,50.40
2018-02-20T02:23:23.524Z,49.00
2018-02-20T02:25:51.027Z,40.90
2018-02-20T02:28:18.472Z,43.87
2018-02-20T02:30:45.932Z,48.13
2018-02-20T02:33:13.398Z,49.37
2018-02-20T02:35:40.870Z,44.00
2018-02-20T02:38:08.390Z,36.03
2018-02-20T02:40:35.876Z,33.33
2018-02-20T02:43:03.377Z,51.93
2018-02-20T02:45:30.906Z,48.07
2018-02-20T02:47:58.350Z,38.93
2018-02-20T02:50:25.829Z,51.67
2018-02-20T02:52:53.267Z,35.23
2018-02-20T02:55:20.748Z,42.53
2018-02-20T02:57:48.207Z,39.67
2018-02-20T03:00:15.686Z,43.83
2018-02-20T03:02:43.131Z,43.93
2018-02-20T03:05:10.596Z,39.93
2018-02-20T03:07:38.044Z,46.93
2018-02-20T03:10:05.513Z,43.50
2018-02-20T03:12:32.980Z,53.30
2018-02-20T03:15:00.448Z,45.33
2018-02-20T03:17:27.888Z,56.83
2018-02-20T03:19:55.644Z,49.60
2018-02-20T03:22:23.081Z,42.80
2018-02-20T03:24:51.288Z,37.03
2018-02-20T03:27:18.776Z,48.87
2018-02-20T03:29:46.220Z,37.30
2018-02-20T03:32:13.672Z,40.13
2018-02-20T03:34:41.157Z,46.07
2018-02-20T03:37:08.620Z,27.20
2018-02-20T03:39:36.057Z,42.87
2018-02-20T03:42:03.514Z,47.67
2018-02-20T03:44:30.960Z,44.43
2018-02-20T03:46:58.545Z,41.50
2018-02-20T03:49:25.993Z,46.80
2018-02-20T03:51:53.441Z,39.03
2018-02-20T03:54:21.660Z,37.90
2018-02-20T03:56:49.125Z,43.33
2018-02-20T03:59:16.593Z,50.20
2018-02-20T04:01:44.047Z,48.03
2018-02-20T04:04:11.509Z,36.07
2018-02-20T04:06:39.021Z,50.13
2018-02-20T04:09:07.256Z,45.93
2018-02-20T04:11:34.707Z,50.03
2018-02-20T04:14:02.160Z,40.23
2018-02-20T04:16:29.688Z,39.30
2018-02-20T04:18:57.917Z,46.70
2018-02-20T04:21:25.384Z,47.73
2018-02-20T04:23:52.824Z,42.87
2018-02-20T04:26:20.306Z,44.83
2018-02-20T04:28:47.745Z,47.63
2018-02-20T04:31:15.219Z,49.10
2018-02-20T04:33:42.680Z,47.33
2018-02-20T04:36:10.132Z,42.60
2018-02-20T04:38:37.560Z,36.40
2018-02-20T04:41:05.780Z,42.80
2018-02-20T04:43:33.273Z,54.60
2018-02-20T04:46:00.736Z,47.73
2018-02-20T04:48:28.168Z,40.40
2018-02-20T04:50:55.660Z,44.97
2018-02-20T04:53:23.099Z,39.90
2018-02-20T04:55:50.552Z,41.27
2018-02-20T04:58:18.007Z,46.40
2018-02-20T05:00:45.444Z,37.57
2018-02-20T05:03:12.895Z,36.07
2018-02-20T05:05:40.336Z,46.57
2018-02-20T05:08:08.548Z,48.07
2018-02-20T05:10:36.855Z,44.23
2018-02-20T05:13:04.363Z,46.90
2018-02-20T05:15:32.567Z,40.43
2018-02-20T05:18:00.065Z,35.60
2018-02-20T05:20:27.558Z,43.80
2018-02-20T05:22:55.082Z,45.40
2018-02-20T05:25:22.595Z,32.53
2018-02-20T05:27:50.808Z,48.20
2018-02-20T05:30:18.247Z,43.93
2018-02-20T05:32:45.959Z,40.27
2018-02-20T05:35:13.566Z,51.57
2018-02-20T05:37:41.796Z,53.23
2018-02-20T05:40:09.355Z,38.63
2018-02-20T05:42:36.888Z,47.13
2018-02-20T05:45:05.190Z,40.87
2018-02-20T05:47:32.767Z,43.87
2018-02-20T05:50:00.328Z,36.50
2018-02-20T05:52:27.825Z,48.40
2018-02-20T05:54:55.356Z,52.27
2018-02-20T05:57:22.822Z,47.40
2018-02-20T05:59:50.264Z,49.50
2018-02-20T06:02:17.758Z,56.47
2018-02-20T06:04:45.304Z,53.53
2018-02-20T06:07:12.772Z,42.70
2018-02-20T06:09:40.251Z,37.00
2018-02-20T06:12:07.688Z,37.83
2018-02-20T06:14:35.127Z,41.40
2018-02-20T06:17:02.575Z,38.43
2018-02-20T06:19:30.096Z,42.10
2018-02-20T06:21:57.635Z,36.87
2018-02-20T06:24:25.082Z,38.20
2018-02-20T06:26:52.533Z,48.07
2018-02-20T06:29:19.976Z,41.30
2018-02-20T06:31:47.428Z,46.07
2018-02-20T06:34:15.639Z,49.50
2018-02-20T06:36:43.080Z,40.73
2018-02-20T06:39:10.533Z,43.17
2018-02-20T06:41:38.736Z,43.10
2018-02-20T06:44:06.189Z,39.07
2018-02-20T06:46:33.640Z,42.87
2018-02-20T06:49:01.902Z,45.97
2018-02-20T06:51:29.430Z,48.37
2018-02-20T06:53:57.688Z,43.97
2018-02-20T06:56:25.134Z,44.83
2018-02-20T06:58:52.600Z,43.43
2018-02-20T07:01:20.028Z,39.33
2018-02-20T07:03:48.272Z,50.43
2018-02-20T07:06:15.717Z,38.93
2018-02-20T07:08:43.216Z,41.30
2018-02-20T07:11:10.660Z,45.00
2018-02-20T07:13:38.216Z,38.23
2018-02-20T07:16:05.676Z,29.67
2018-02-20T07:18:33.201Z,48.90
2018-02-20T07:21:00.777Z,43.90
2018-02-20T07:23:28.213Z,53.23
2018-02-20T07:25:56.420Z,42.77
2018-02-20T07:28:23.977Z,55.87
2018-02-20T07:30:51.423Z,54.70
2018-02-20T07:33:18.880Z,48.53
2018-02-20T07:35:47.079Z,44.07
2018-02-20T07:38:14.558Z,44.00
2018-02-20T07:40:41.999Z,42.10
2018-02-20T07:43:09.472Z,42.17
2018-02-20T07:45:36.916Z,42.57
2018-02-20T07:48:04.362Z,54.03
2018-02-20T07:50:32.667Z,41.07
2018-02-20T07:53:00.159Z,43.80
2018-02-20T07:55:27.619Z,44.73
2018-02-20T07:57:55.096Z,54.43
2018-02-20T08:00:22.546Z,54.43
2018-02-20T08:02:49.988Z,40.07
2018-02-20T08:05:17.425Z,49.77
2018-02-20T08:07:44.863Z,37.53
2018-02-20T08:10:12.321Z,43.43
2018-02-20T08:12:39.943Z,40.13
2018-02-20T08:15:07.396Z,41.77
2018-02-20T08:17:34.840Z,40.17
2018-02-20T08:20:02.308Z,42.47
2018-02-20T08:22:29.731Z,40.93
2018-02-20T08:24:57.943Z,38.10
2018-02-20T08:27:25.464Z,41.03
2018-02-20T08:29:52.915Z,41.47
2018-02-20T08:32:20.357Z,41.67
2018-02-20T08:34:47.816Z,40.10
2018-02-20T08:37:15.255Z,41.73
2018-02-20T08:39:42.728Z,37.87
2018-02-20T08:42:10.199Z,41.07
2018-02-20T08:44:37.656Z,51.50
2018-02-20T08:47:05.122Z,45.43
2018-02-20T08:49:32.659Z,48.70
2018-02-20T08:52:00.084Z,48.53
2018-02-20T08:54:28.313Z,43.37
2018-02-20T08:56:55.759Z,47.53
2018-02-20T08:59:23.196Z,36.33
2018-02-20T09:01:51.401Z,44.07
2018-02-20T09:04:18.898Z,38.60
2018-02-20T09:06:46.331Z,47.70
2018-02-20T09:09:14.325Z,47.33
2018-02-20T09:11:41.764Z,38.20
2018-02-20T09:14:09.248Z,43.53
2018-02-20T09:16:36.681Z,47.93
2018-02-20T09:19:04.216Z,48.77
2018-02-20T09:21:32.522Z,45.80
2018-02-20T09:23:59.983Z,39.43
2018-02-20T09:26:27.412Z,44.97
2018-02-20T09:28:55.624Z,52.37
2018-02-20T09:31:23.059Z,42.37
2018-02-20T09:33:51.307Z,36.43
2018-02-20T09:36:18.765Z,36.70
2018-02-20T09:38:46.312Z,36.50
2018-02-20T09:41:13.779Z,36.77
2018-02-20T09:43:41.259Z,35.70
2018-02-20T09:46:08.804Z,40.17
2018-02-20T09:48:36.276Z,40.10
2018-02-20T09:51:03.823Z,30.73
2018-02-20T09:53:31.260Z,32.07
2018-02-20T09:55:58.779Z,39.17
2018-02-20T09:58:26.224Z,33.77
2018-02-20T10:00:53.780Z,37.00
2018-02-20T10:03:21.279Z,35.33
2018-02-20T10:05:48.804Z,33.80
2018-02-20T10:08:16.364Z,39.50
2018-02-20T10:10:43.816Z,31.50
2018-02-20T10:13:11.361Z,29.40
2018-02-20T10:15:38.796Z,35.40
2018-02-20T10:18:06.999Z,30.87
2018-02-20T10:20:34.666Z,31.90
2018-02-20T10:23:02.108Z,28.63
2018-02-20T10:25:30.361Z,37.13
2018-02-20T10:27:58.615Z,38.63
2018-02-20T10:30:26.079Z,43.90
2018-02-20T10:32:53.536Z,30.17
2018-02-20T10:35:21.021Z,31.90
2018-02-20T10:37:48.568Z,31.93
2018-02-20T10:40:16.112Z,32.80
2018-02-20T10:42:43.664Z,39.87
2018-02-20T10:45:11.110Z,30.50
2018-02-20T10:47:38.584Z,36.37
2018-02-20T10:50:06.043Z,34.53
2018-02-20T10:52:33.630Z,38.63
2018-02-20T10:55:01.068Z,33.77
2018-02-20T10:57:28.508Z,36.53
2018-02-20T10:59:56.724Z,40.57
2018-02-20T11:02:24.203Z,35.67
2018-02-20T11:04:51.659Z,34.53
2018-02-20T11:07:19.099Z,35.90
2018-02-20T11:09:46.571Z,34.50
2018-02-20T11:12:14.060Z,30.33
2018-02-20T11:14:41.523Z,33.27
2018-02-20T11:17:08.967Z,37.03
2018-02-20T11:19:36.528Z,30.40
2018-02-20T11:22:03.992Z,42.30
2018-02-20T11:24:31.439Z,32.57
2018-02-20T11:26:58.891Z,39.50
2018-02-20T11:29:26.349Z,37.70
2018-02-20T11:31:53.847Z,38.03
2018-02-20T11:34:21.312Z,40.33
2018-02-20T11:36:48.756Z,33.80
2018-02-20T11:39:16.216Z,35.83
2018-02-20T11:41:43.684Z,34.90
2018-02-20T11:44:11.140Z,34.70
2018-02-20T11:46:38.657Z,38.90
2018-02-20T11:49:06.890Z,39.00
2018-02-20T11:51:34.332Z,39.03
2018-02-20T11:54:01.807Z,42.90
2018-02-20T11:56:29.256Z,39.33
2018-02-20T11:58:56.727Z,33.90
2018-02-20T12:01:24.266Z,37.07
2018-02-20T12:03:51.616Z,34.73
2018-02-20T12:06:19.090Z,31.17
2018-02-20T12:08:46.517Z,33.60
2018-02-20T12:11:14.732Z,29.13
2018-02-20T12:13:42.188Z,33.43
2018-02-20T12:16:09.631Z,41.53
2018-02-20T12:18:37.833Z,33.83
2018-02-20T12:21:05.392Z,37.40
2018-02-20T12:23:32.899Z,38.47
2018-02-20T12:26:00.465Z,35.10
2018-02-20T12:28:27.940Z,30.80
2018-02-20T12:30:55.387Z,36.10
2018-02-20T12:33:22.936Z,35.10
2018-02-20T12:35:50.409Z,34.13
2018-02-20T12:38:17.840Z,32.07
2018-02-20T12:40:45.284Z,36.57
2018-02-20T12:43:12.789Z,33.07
2018-02-20T12:45:40.348Z,33.30
2018-02-20T12:48:07.793Z,33.30
2018-02-20T12:50:35.247Z,34.23
2018-02-20T12:53:02.696Z,35.10
2018-02-20T12:55:30.135Z,30.40
2018-02-20T12:57:58.361Z,35.07
2018-02-20T13:00:25.812Z,39.30
2018-02-20T13:02:53.259Z,36.57
2018-02-20T13:05:20.818Z,67.67
2018-02-20T13:07:48.312Z,33.93
2018-02-20T13:10:15.756Z,41.97
2018-02-20T13:12:43.228Z,38.43
2018-02-20T13:15:10.751Z,41.67
2018-02-20T13:17:39.009Z,38.87
2018-02-20T13:20:06.540Z,32.97
2018-02-20T13:22:33.991Z,35.90
2018-02-20T13:25:01.437Z,37.40
2018-02-20T13:27:28.887Z,37.47
2018-02-20T13:29:56.323Z,39.63
2018-02-20T13:32:24.539Z,39.00
2018-02-20T13:34:51.979Z,41.23
2018-02-20T13:37:19.438Z,42.20
2018-02-20T13:39:47.660Z,42.27
2018-02-20T13:42:15.132Z,45.50
2018-02-20T13:44:42.576Z,44.70
2018-02-20T13:47:10.048Z,47.03
2018-02-20T13:49:37.503Z,37.30
2018-02-20T13:52:04.953Z,33.63
2018-02-20T13:54:32.448Z,35.83
2018-02-20T13:56:59.895Z,36.60
2018-02-20T13:59:27.531Z,39.80
2018-02-20T14:01:54.979Z,37.47
2018-02-20T14:04:23.195Z,42.17
2018-02-20T14:06:50.647Z,30.43
2018-02-20T14:09:18.105Z,37.30
2018-02-20T14:11:45.556Z,43.30
2018-02-20T14:14:12.995Z,35.80
2018-02-20T14:16:41.294Z,38.07
2018-02-20T14:19:08.719Z,30.83
2018-02-20T14:21:36.940Z,40.90
2018-02-20T14:24:04.564Z,36.00
2018-02-20T14:26:32.032Z,35.13
2018-02-20T14:29:00.278Z,37.00
2018-02-20T14:31:27.743Z,38.13
2018-02-20T14:33:55.191Z,34.20
2018-02-20T14:36:22.725Z,31.10
2018-02-20T14:38:50.225Z,36.67
2018-02-20T14:41:17.664Z,34.60
2018-02-20T14:43:45.106Z,57.60
2018-02-20T14:46:12.545Z,38.07
2018-02-20T14:48:40.828Z,39.13
2018-02-20T14:51:09.135Z,35.60
2018-02-20T14:53:36.568Z,36.40
2018-02-20T14:56:04.803Z,35.63
2018-02-20T14:58:32.252Z,34.27
2018-02-20T15:01:00.624Z,33.73
2018-02-20T15:03:28.079Z,38.93
2018-02-20T15:05:55.587Z,38.70
2018-02-20T15:08:23.076Z,40.63
2018-02-20T15:10:50.496Z,38.53
2018-02-20T15:13:17.944Z,38.43
2018-02-20T15:15:45.428Z,32.37
2018-02-20T15:18:12.977Z,37.50
2018-02-20T15:20:40.445Z,32.70
2018-02-20T15:23:07.883Z,37.00
2018-02-20T15:25:35.317Z,38.80
2018-02-20T15:28:02.852Z,36.27
2018-02-20T15:30:30.404Z,29.63
2018-02-20T15:32:57.843Z,34.93
2018-02-20T15:35:25.440Z,30.63
2018-02-20T15:37:53.108Z,41.87
2018-02-20T15:40:20.673Z,40.63
2018-02-20T15:42:48.512Z,45.53
2018-02-20T15:45:15.972Z,36.20
2018-02-20T15:47:43.431Z,37.10
2018-02-20T15:50:10.884Z,38.33
2018-02-20T15:52:39.888Z,35.37
2018-02-20T15:55:07.335Z,36.83
2018-02-20T15:57:34.821Z,36.07
2018-02-20T16:00:02.785Z,47.27
2018-02-20T16:02:31.332Z,42.33
2018-02-20T16:04:59.552Z,41.30
2018-02-20T16:07:26.995Z,41.70
2018-02-20T16:09:54.473Z,30.93
2018-02-20T16:12:21.972Z,43.50
2018-02-20T16:14:49.397Z,44.10
2018-02-20T16:17:16.853Z,34.33
2018-02-20T16:19:44.296Z,38.33
2018-02-20T16:22:11.782Z,39.10
2018-02-20T16:24:39.321Z,39.80
2018-02-20T16:27:06.804Z,41.87
2018-02-20T16:29:34.268Z,36.70
2018-02-20T16:32:01.709Z,29.50
2018-02-20T16:34:29.206Z,35.97
2018-02-20T16:36:56.695Z,37.97
2018-02-20T16:39:25.011Z,37.30
2018-02-20T16:41:52.452Z,35.67
2018-02-20T16:44:20.692Z,34.83
2018-02-20T16:46:48.139Z,31.90
2018-02-20T16:49:15.645Z,33.83
2018-02-20T16:51:43.035Z,33.27
2018-02-20T16:54:10.538Z,38.87
2018-02-20T16:56:37.990Z,37.70
2018-02-20T16:59:05.617Z,37.03
2018-02-20T17:01:33.044Z,38.47
2018-02-20T17:04:01.264Z,38.80
2018-02-20T17:06:28.703Z,35.50
2018-02-20T17:08:56.979Z,34.57
2018-02-20T17:11:25.181Z,39.30
2018-02-20T17:13:52.688Z,30.13
2018-02-20T17:16:20.131Z,30.73
2018-02-20T17:18:47.587Z,35.30
2018-02-20T17:21:15.088Z,41.50
2018-02-20T17:23:42.621Z,37.60
2018-02-20T17:26:10.068Z,30.73
2018-02-20T17:28:37.518Z,38.30
2018-02-20T17:31:04.952Z,39.93
2018-02-20T17:33:33.165Z,38.00
2018-02-20T17:36:00.716Z,44.83
2018-02-20T17:38:28.164Z,37.20
2018-02-20T17:40:55.681Z,39.47
2018-02-20T17:43:23.146Z,35.33
2018-02-20T17:45:50.588Z,30.40
2018-02-20T17:48:18.026Z,38.03
2018-02-20T17:50:45.480Z,42.40
2018-02-20T17:53:12.933Z,40.80
2018-02-20T17:55:41.128Z,40.17
2018-02-20T17:58:08.564Z,52.80
2018-02-20T18:00:36.112Z,37.27
2018-02-20T18:03:04.328Z,41.83
2018-02-20T18:05:31.780Z,36.87
2018-02-20T18:07:59.271Z,39.70
2018-02-20T18:10:26.721Z,38.50
2018-02-20T18:12:54.166Z,45.03
2018-02-20T18:15:21.660Z,44.20
2018-02-20T18:17:49.124Z,36.83
2018-02-20T18:20:16.591Z,41.60
2018-02-20T18:22:44.037Z,40.80
2018-02-20T18:25:11.486Z,36.60
2018-02-20T18:27:38.963Z,35.40
2018-02-20T18:30:06.431Z,36.00
2018-02-20T18:32:33.872Z,37.70
2018-02-20T18:35:01.356Z,48.23
2018-02-20T18:37:28.792Z,52.97
2018-02-20T18:39:56.280Z,41.50
2018-02-20T18:42:23.717Z,41.03
2018-02-20T18:44:51.164Z,39.30
2018-02-20T18:47:18.664Z,38.07
2018-02-20T18:49:46.127Z,47.87
2018-02-20T18:52:13.559Z,37.67
2018-02-20T18:54:41.012Z,43.27
2018-02-20T18:57:08.572Z,41.67
2018-02-20T18:59:36.050Z,38.37
2018-02-20T19:02:03.558Z,37.40
2018-02-20T19:04:30.997Z,51.10
2018-02-20T19:06:58.458Z,35.87
2018-02-20T19:09:25.927Z,42.73
2018-02-20T19:11:53.461Z,40.70
2018-02-20T19:14:20.903Z,42.93
2018-02-20T19:16:48.360Z,44.47
2018-02-20T19:19:16.574Z,42.23
2018-02-20T19:21:44.011Z,44.77
2018-02-20T19:24:11.496Z,49.13
2018-02-20T19:26:38.975Z,42.90
2018-02-20T19:29:06.428Z,40.13
2018-02-20T19:31:33.895Z,43.17
2018-02-20T19:34:01.425Z,46.57
2018-02-20T19:36:28.869Z,36.83
2018-02-20T19:38:57.205Z,45.30
2018-02-20T19:41:24.652Z,46.77
2018-02-20T19:43:52.115Z,41.83
2018-02-20T19:46:19.564Z,54.43
2018-02-20T19:48:47.051Z,35.13
2018-02-20T19:51:14.487Z,45.80
2018-02-20T19:53:41.932Z,41.97
2018-02-20T19:56:09.420Z,55.40
2018-02-20T19:58:36.859Z,40.53
2018-02-20T20:01:04.313Z,43.53
2018-02-20T20:03:31.882Z,53.10
2018-02-20T20:05:59.355Z,41.63
2018-02-20T20:08:26.877Z,45.57
2018-02-20T20:10:55.257Z,54.20
2018-02-20T20:13:23.451Z,49.40
2018-02-20T20:15:50.900Z,50.70
2018-02-20T20:18:19.181Z,41.80
2018-02-20T20:20:48.059Z,52.77
2018-02-20T20:23:14.890Z,39.17
2018-02-20T20:25:42.340Z,51.03
2018-02-20T20:28:09.920Z,43.97
2018-02-20T20:30:37.584Z,46.73
2018-02-20T20:33:05.067Z,45.93
2018-02-20T20:35:32.508Z,52.40
2018-02-20T20:38:00.042Z,51.03
2018-02-20T20:40:27.486Z,47.37
2018-02-20T20:42:54.936Z,53.87
2018-02-20T20:45:22.400Z,53.27
2018-02-20T20:47:50.049Z,43.13
2018-02-20T20:50:17.484Z,54.47
2018-02-20T20:52:44.916Z,58.00
2018-02-20T20:55:12.424Z,59.40
2018-02-20T20:57:40.039Z,60.17
2018-02-20T21:00:07.606Z,56.77
2018-02-20T21:02:35.034Z,45.07
2018-02-20T21:05:03.249Z,61.70
2018-02-20T21:07:30.691Z,50.67
2018-02-20T21:09:58.357Z,56.43
2018-02-20T21:12:25.925Z,57.33
2018-02-20T21:14:53.348Z,53.80
2018-02-20T21:17:21.716Z,56.77
2018-02-20T21:19:49.288Z,53.40
2018-02-20T21:22:16.720Z,56.47
2018-02-20T21:24:44.178Z,54.90
2018-02-20T21:27:11.715Z,52.13
2018-02-20T21:29:39.174Z,60.37
2018-02-20T21:32:06.607Z,53.27
2018-02-20T21:34:34.076Z,58.30
2018-02-20T21:37:02.279Z,49.13
2018-02-20T21:39:29.715Z,64.23
2018-02-20T21:41:57.213Z,45.47
2018-02-20T21:44:24.767Z,56.97
2018-02-20T21:46:52.248Z,55.53
2018-02-20T21:49:19.787Z,49.83
2018-02-20T21:51:47.277Z,52.53
2018-02-20T21:54:14.845Z,48.47
2018-02-20T21:56:42.284Z,61.30
2018-02-20T21:59:09.756Z,53.77
2018-02-20T22:01:37.260Z,49.57
2018-02-20T22:04:04.684Z,57.77
2018-02-20T22:06:32.253Z,48.03
2018-02-20T22:09:00.135Z,60.87
2018-02-20T22:11:27.680Z,53.20
2018-02-20T22:13:55.125Z,57.37
2018-02-20T22:16:22.608Z,58.23
2018-02-20T22:18:50.048Z,51.97
2018-02-20T22:21:17.501Z,55.03
2018-02-20T22:23:44.994Z,68.40
2018-02-20T22:26:12.452Z,55.93
2018-02-20T22:28:39.885Z,50.33
2018-02-20T22:31:07.356Z,73.43
2018-02-20T22:33:34.793Z,53.73
2018-02-20T22:36:03.016Z,57.40
2018-02-20T22:38:30.471Z,58.80
2018-02-20T22:40:57.936Z,63.17
2018-02-20T22:43:25.392Z,57.43
2018-02-20T22:45:52.831Z,58.87
2018-02-20T22:48:20.279Z,54.73
2018-02-20T22:50:47.720Z,57.50
2018-02-20T22:53:15.927Z,58.67
2018-02-20T22:55:43.424Z,56.67
2018-02-20T22:58:10.884Z,62.00
2018-02-20T23:00:38.333Z,61.37
2018-02-20T23:03:05.811Z,56.90
2018-02-20T23:05:33.264Z,62.40
2018-02-20T23:08:00.719Z,66.90
2018-02-20T23:10:28.266Z,59.90
2018-02-20T23:12:55.747Z,45.67
2018-02-20T23:15:23.273Z,54.20
2018-02-20T23:17:51.508Z,56.30
2018-02-20T23:20:18.956Z,57.30
2018-02-20T23:22:46.406Z,58.03
2018-02-20T23:25:13.875Z,47.03
2018-02-20T23:27:41.340Z,55.70
2018-02-20T23:30:08.764Z,63.70
2018-02-20T23:32:36.212Z,58.27
2018-02-20T23:35:04.424Z,59.47
2018-02-20T23:37:31.882Z,67.43
2018-02-20T23:39:59.368Z,54.63
2018-02-20T23:42:26.815Z,72.97
2018-02-20T23:44:54.292Z,62.90
2018-02-20T23:47:21.756Z,50.80
2018-02-20T23:49:49.195Z,57.70
2018-02-20T23:52:16.648Z,63.67
2018-02-20T23:54:44.088Z,48.70
2018-02-20T23:57:12.304Z,64.67
2018-02-20T23:59:39.752Z,58.27
